createdAt,value
2019-04-14T00:02:16.355Z,26.20
2019-04-14T00:08:11.980Z,26.57
2019-04-14T00:10:59.492Z,25.63
2019-04-14T00:13:47.870Z,25.50
2019-04-14T00:25:43.412Z,26.00
2019-04-14T00:28:31.699Z,25.30
2019-04-14T00:31:39.120Z,24.53
2019-04-14T00:34:46.388Z,25.13
2019-04-14T00:37:53.360Z,24.33
2019-04-14T00:44:10.364Z,26.40
2019-04-14T00:50:08.037Z,25.17
2019-04-14T00:52:56.645Z,26.67
2019-04-14T00:55:44.688Z,25.23
2019-04-14T00:58:32.286Z,25.73
2019-04-14T01:04:27.291Z,26.97
2019-04-14T01:07:15.211Z,24.27
2019-04-14T01:10:04.051Z,25.77
2019-04-14T01:12:51.819Z,26.40
2019-04-14T01:15:52.649Z,24.97
2019-04-14T01:18:30.187Z,24.77
2019-04-14T01:21:17.716Z,25.87
2019-04-14T01:24:05.366Z,25.13
2019-04-14T01:26:55.021Z,24.63
2019-04-14T01:29:44.826Z,25.93
2019-04-14T01:32:33.059Z,24.37
2019-04-14T01:35:20.552Z,25.20
2019-04-14T01:38:08.111Z,25.20
2019-04-14T01:40:55.601Z,25.53
2019-04-14T01:43:43.086Z,24.80
2019-04-14T01:46:32.733Z,25.63
2019-04-14T01:49:20.363Z,26.43
2019-04-14T01:52:27.451Z,25.83
2019-04-14T01:55:33.825Z,28.33
2019-04-14T01:58:43.165Z,25.17
2019-04-14T02:04:59.915Z,24.03
2019-04-14T02:07:42.913Z,25.63
2019-04-14T02:16:52.590Z,24.67
2019-04-14T02:19:39.276Z,25.00
2019-04-14T02:22:27.545Z,25.27
2019-04-14T02:25:15.040Z,27.00
2019-04-14T02:31:57.030Z,27.30
2019-04-14T02:37:40.297Z,26.87
2019-04-14T02:40:34.798Z,29.27
2019-04-14T02:45:57.788Z,30.20
2019-04-14T02:51:49.744Z,28.90
2019-04-14T02:57:23.068Z,28.30
2019-04-14T03:00:21.657Z,29.03
2019-04-14T03:03:12.866Z,30.63
2019-04-14T03:05:59.338Z,29.20
2019-04-14T03:08:51.520Z,28.57
2019-04-14T03:11:34.461Z,28.23
2019-04-14T03:14:37.345Z,27.60
2019-04-14T03:20:47.498Z,29.83
2019-04-14T03:23:36.341Z,28.73
2019-04-14T03:26:27.330Z,28.30
2019-04-14T03:29:20.774Z,27.70
2019-04-14T03:32:39.565Z,27.70
2019-04-14T03:35:03.886Z,28.53
2019-04-14T03:37:50.358Z,27.83
2019-04-14T03:40:44.678Z,27.30
2019-04-14T03:43:25.428Z,26.70
2019-04-14T03:46:27.795Z,27.40
2019-04-14T03:49:08.174Z,27.23
2019-04-14T03:57:27.045Z,26.33
2019-04-14T04:03:26.058Z,24.07
2019-04-14T04:06:13.954Z,24.80
2019-04-14T04:09:03.894Z,25.07
2019-04-14T04:11:54.567Z,26.73
2019-04-14T04:18:05.521Z,27.03
2019-04-14T04:24:37.180Z,25.63
2019-04-14T04:42:54.789Z,25.40
2019-04-14T04:45:43.143Z,26.10
2019-04-14T04:52:14.577Z,25.17
2019-04-14T04:58:28.494Z,26.27
2019-04-14T05:01:16.742Z,26.70
2019-04-14T05:04:05.155Z,26.37
2019-04-14T05:10:24.261Z,26.50
2019-04-14T05:16:37.106Z,26.23
2019-04-14T05:22:29.371Z,27.97
2019-04-14T05:25:16.837Z,27.43
2019-04-14T05:28:04.832Z,27.57
2019-04-14T05:40:10.380Z,29.97
2019-04-14T05:46:14.131Z,29.87
2019-04-14T05:55:40.116Z,29.20
2019-04-14T06:01:41.942Z,29.00
2019-04-14T06:07:34.882Z,28.00
2019-04-14T06:10:22.338Z,28.50
2019-04-14T06:13:11.782Z,27.83
2019-04-14T06:15:52.273Z,28.67
2019-04-14T06:18:39.741Z,27.10
2019-04-14T06:21:29.266Z,26.50
2019-04-14T06:24:16.768Z,26.13
2019-04-14T06:27:04.289Z,25.30
2019-04-14T06:29:54.103Z,25.40
2019-04-14T06:32:44.053Z,27.27
2019-04-14T06:35:50.508Z,26.30
2019-04-14T06:38:40.488Z,25.07
2019-04-14T06:41:28.257Z,25.70
2019-04-14T06:44:15.717Z,25.90
2019-04-14T06:47:03.524Z,25.77
2019-04-14T06:49:51.268Z,26.97
2019-04-14T06:52:38.700Z,25.20
2019-04-14T06:55:26.233Z,25.60
2019-04-14T06:58:13.773Z,25.57
2019-04-14T07:01:01.622Z,25.90
2019-04-14T07:03:49.098Z,25.37
2019-04-14T07:06:36.548Z,25.30
2019-04-14T07:09:24.101Z,25.80
2019-04-14T07:12:11.731Z,24.03
2019-04-14T07:14:59.283Z,25.33
2019-04-14T07:17:46.697Z,24.60
2019-04-14T07:20:34.188Z,25.20
2019-04-14T07:23:21.690Z,25.43
2019-04-14T07:26:09.309Z,24.53
2019-04-14T07:28:57.205Z,24.93
2019-04-14T07:32:05.574Z,24.90
2019-04-14T07:35:12.033Z,25.53
2019-04-14T07:38:18.419Z,23.30
2019-04-14T07:41:24.930Z,25.47
2019-04-14T07:44:31.327Z,25.33
2019-04-14T07:47:28.375Z,25.53
2019-04-14T07:50:35.195Z,26.00
2019-04-14T07:53:41.698Z,24.20
2019-04-14T07:56:48.471Z,24.90
2019-04-14T07:59:46.614Z,24.87
2019-04-14T08:02:48.320Z,25.83
2019-04-14T08:05:37.728Z,25.63
2019-04-14T08:08:25.722Z,25.17
2019-04-14T08:11:13.230Z,24.23
2019-04-14T08:14:01.032Z,24.53
2019-04-14T08:16:48.517Z,25.83
2019-04-14T08:19:36.003Z,25.70
2019-04-14T08:22:23.472Z,24.03
2019-04-14T08:25:11.088Z,26.17
2019-04-14T08:27:58.560Z,25.97
2019-04-14T08:30:46.003Z,24.37
2019-04-14T08:33:33.526Z,24.87
2019-04-14T08:36:21.002Z,24.17
2019-04-14T08:39:08.519Z,23.77
2019-04-14T08:42:14.936Z,23.43
2019-04-14T08:48:36.308Z,21.30
2019-04-14T08:51:42.706Z,20.50
2019-04-14T08:54:49.047Z,21.43
2019-04-14T08:57:47.757Z,20.57
2019-04-14T09:00:54.142Z,20.73
2019-04-14T09:03:58.259Z,19.93
2019-04-14T09:07:04.630Z,20.87
2019-04-14T09:12:50.103Z,19.67
2019-04-14T09:15:37.650Z,18.67
2019-04-14T09:18:25.158Z,19.53
2019-04-14T09:21:12.803Z,17.80
2019-04-14T09:24:00.272Z,18.73
2019-04-14T09:26:47.734Z,18.83
2019-04-14T09:29:35.228Z,17.03
2019-04-14T09:32:23.502Z,16.77
2019-04-14T09:35:11.285Z,14.93
2019-04-14T09:40:41.448Z,15.87
2019-04-14T09:43:28.946Z,15.30
2019-04-14T09:49:09.966Z,15.90
2019-04-14T09:51:58.690Z,16.03
2019-04-14T09:54:47.338Z,15.37
2019-04-14T09:57:34.801Z,14.97
2019-04-14T10:00:22.450Z,15.63
2019-04-14T10:03:09.967Z,14.07
2019-04-14T10:05:57.463Z,13.90
2019-04-14T10:08:45.191Z,14.27
2019-04-14T10:11:32.682Z,13.90
2019-04-14T10:17:27.237Z,15.13
2019-04-14T10:20:14.807Z,14.53
2019-04-14T10:23:02.270Z,14.23
2019-04-14T10:25:49.772Z,14.33
2019-04-14T10:28:37.268Z,13.33
2019-04-14T10:31:18.442Z,12.67
2019-04-14T10:34:05.975Z,13.60
2019-04-14T10:36:54.297Z,13.00
2019-04-14T10:39:41.814Z,12.57
2019-04-14T10:42:32.543Z,13.10
2019-04-14T10:45:20.311Z,12.30
2019-04-14T10:48:07.772Z,12.90
2019-04-14T10:50:55.224Z,12.93
2019-04-14T10:53:42.851Z,13.13
2019-04-14T10:56:30.291Z,13.30
2019-04-14T10:59:12.076Z,13.37
2019-04-14T11:01:59.596Z,12.60
2019-04-14T11:04:47.232Z,12.37
2019-04-14T11:07:34.692Z,12.93
2019-04-14T11:10:24.479Z,11.93
2019-04-14T11:13:12.019Z,12.30
2019-04-14T11:15:59.432Z,11.87
2019-04-14T11:18:47.009Z,11.73
2019-04-14T11:21:42.295Z,12.30
2019-04-14T11:24:26.537Z,12.67
2019-04-14T11:27:32.860Z,11.23
2019-04-14T11:30:21.910Z,11.43
2019-04-14T11:33:28.582Z,10.23
2019-04-14T11:36:34.929Z,11.23
2019-04-14T11:39:22.813Z,11.40
2019-04-14T11:42:10.277Z,11.40
2019-04-14T11:44:58.586Z,11.53
2019-04-14T11:50:39.577Z,11.03
2019-04-14T11:53:29.468Z,10.20
2019-04-14T11:56:17.035Z,11.33
2019-04-14T11:59:04.478Z,11.67
2019-04-14T12:02:16.458Z,10.70
2019-04-14T12:05:13.107Z,10.37
2019-04-14T12:08:19.537Z,11.30
2019-04-14T12:11:07.036Z,10.87
2019-04-14T12:13:54.575Z,10.97
2019-04-14T12:16:43.097Z,10.87
2019-04-14T12:19:49.610Z,11.53
2019-04-14T12:25:31.754Z,11.70
2019-04-14T12:28:19.437Z,10.77
2019-04-14T12:31:07.096Z,12.03
2019-04-14T12:33:54.634Z,11.73
2019-04-14T12:36:42.209Z,11.03
2019-04-14T12:39:29.833Z,10.97
2019-04-14T12:42:36.142Z,11.67
2019-04-14T12:45:48.357Z,12.00
2019-04-14T12:48:54.754Z,12.00
2019-04-14T12:52:01.124Z,11.87
2019-04-14T12:54:48.737Z,11.63
2019-04-14T13:01:12.576Z,11.07
2019-04-14T13:04:00.026Z,11.00
2019-04-14T13:06:47.542Z,11.83
2019-04-14T13:09:35.109Z,11.93
2019-04-14T13:12:22.693Z,10.70
2019-04-14T13:15:10.515Z,11.40
2019-04-14T13:17:58.147Z,11.53
2019-04-14T13:20:45.596Z,12.40
2019-04-14T13:23:33.526Z,11.10
2019-04-14T13:26:21.343Z,11.30
2019-04-14T13:29:10.550Z,11.37
2019-04-14T13:31:51.748Z,10.37
2019-04-14T13:34:42.407Z,11.63
2019-04-14T13:37:29.974Z,11.63
2019-04-14T13:40:17.503Z,13.37
2019-04-14T13:43:05.998Z,13.00
2019-04-14T13:45:53.725Z,11.97
2019-04-14T13:48:41.632Z,12.27
2019-04-14T13:51:29.141Z,11.93
2019-04-14T13:54:18.677Z,14.50
2019-04-14T13:57:06.611Z,13.63
2019-04-14T13:59:54.214Z,12.60
2019-04-14T14:02:41.747Z,13.27
2019-04-14T14:20:27.119Z,13.30
2019-04-14T14:23:33.495Z,13.10
2019-04-14T14:26:22.231Z,13.10
2019-04-14T14:29:10.059Z,13.30
2019-04-14T14:31:58.158Z,18.23
2019-04-14T14:34:46.057Z,14.03
2019-04-14T14:37:33.748Z,13.27
2019-04-14T14:40:21.263Z,13.67
2019-04-14T14:43:08.771Z,15.17
2019-04-14T14:46:18.003Z,13.93
2019-04-14T14:49:24.412Z,14.90
2019-04-14T14:52:14.266Z,13.60
2019-04-14T14:55:01.643Z,13.60
2019-04-14T14:57:49.467Z,15.30
2019-04-14T15:00:32.674Z,14.23
2019-04-14T15:03:20.161Z,13.03
2019-04-14T15:06:01.981Z,13.53
2019-04-14T15:08:50.094Z,13.50
2019-04-14T15:11:37.638Z,12.90
2019-04-14T15:14:25.173Z,12.80
2019-04-14T15:17:12.724Z,13.57
2019-04-14T15:20:00.187Z,12.67
2019-04-14T15:22:52.275Z,13.53
2019-04-14T15:25:38.923Z,14.30
2019-04-14T15:28:26.378Z,13.40
2019-04-14T15:37:27.155Z,14.47
2019-04-14T15:40:14.719Z,12.77
2019-04-14T15:43:02.530Z,12.80
2019-04-14T15:48:56.485Z,13.93
2019-04-14T15:51:44.395Z,14.63
2019-04-14T15:54:31.856Z,12.97
2019-04-14T15:57:35.681Z,12.70
2019-04-14T16:00:45.159Z,13.13
2019-04-14T16:03:51.681Z,14.03
2019-04-14T16:06:52.570Z,12.60
2019-04-14T16:09:44.339Z,12.83
2019-04-14T16:12:50.723Z,13.63
2019-04-14T16:19:22.484Z,11.63
2019-04-14T16:22:09.994Z,12.67
2019-04-14T16:24:57.644Z,12.27
2019-04-14T16:34:24.202Z,12.50
2019-04-14T16:37:11.742Z,14.30
2019-04-14T16:39:59.267Z,13.73
2019-04-14T16:42:47.207Z,12.90
2019-04-14T16:45:34.846Z,13.30
2019-04-14T16:48:24.705Z,15.33
2019-04-14T16:54:43.196Z,14.73
2019-04-14T16:57:49.573Z,13.60
2019-04-14T17:03:39.996Z,13.03
2019-04-14T17:06:28.119Z,12.90
2019-04-14T17:09:17.632Z,13.77
2019-04-14T17:12:05.153Z,14.10
2019-04-14T17:18:27.768Z,15.20
2019-04-14T17:21:34.187Z,13.40
2019-04-14T17:24:35.096Z,13.00
2019-04-14T17:27:41.433Z,12.93
2019-04-14T17:30:47.827Z,13.53
2019-04-14T17:33:54.131Z,12.20
2019-04-14T17:36:49.389Z,14.80
2019-04-14T17:39:55.778Z,13.77
2019-04-14T17:42:47.920Z,11.50
2019-04-14T17:45:54.326Z,13.00
2019-04-14T17:49:00.643Z,13.27
2019-04-14T17:52:07.052Z,12.40
2019-04-14T17:57:54.222Z,13.13
2019-04-14T18:01:00.629Z,11.63
2019-04-14T18:04:07.033Z,10.90
2019-04-14T18:10:24.171Z,10.30
2019-04-14T18:13:30.504Z,11.50
2019-04-14T18:16:36.864Z,11.67
2019-04-14T18:19:43.261Z,12.20
2019-04-14T18:22:33.166Z,13.00
2019-04-14T18:25:20.572Z,11.50
2019-04-14T18:28:27.015Z,12.00
2019-04-14T18:31:33.359Z,12.33
2019-04-14T18:34:39.725Z,11.53
2019-04-14T18:37:46.055Z,12.03
2019-04-14T18:40:52.484Z,15.37
2019-04-14T18:43:58.868Z,14.33
2019-04-14T18:47:05.237Z,11.87
2019-04-14T18:50:01.118Z,11.90
2019-04-14T18:53:07.522Z,12.07
2019-04-14T18:56:13.918Z,11.13
2019-04-14T18:59:20.306Z,11.03
2019-04-14T19:02:08.535Z,11.53
2019-04-14T19:04:56.285Z,11.17
2019-04-14T19:07:43.826Z,12.63
2019-04-14T19:10:31.359Z,11.60
2019-04-14T19:13:37.703Z,10.97
2019-04-14T19:16:39.253Z,10.87
2019-04-14T19:19:19.951Z,11.13
2019-04-14T19:22:07.528Z,11.67
2019-04-14T19:28:01.522Z,10.70
2019-04-14T19:30:48.994Z,11.63
2019-04-14T19:36:25.469Z,11.50
2019-04-14T19:39:12.943Z,11.73
2019-04-14T19:42:00.471Z,11.97
2019-04-14T19:44:47.959Z,12.07
2019-04-14T19:47:38.083Z,11.73
2019-04-14T19:50:25.853Z,11.70
2019-04-14T19:53:13.322Z,12.23
2019-04-14T19:56:00.836Z,11.33
2019-04-14T19:58:48.298Z,11.63
2019-04-14T20:01:36.142Z,11.87
2019-04-14T20:04:25.943Z,11.87
2019-04-14T20:07:13.592Z,11.40
2019-04-14T20:10:01.075Z,11.77
2019-04-14T20:12:42.229Z,10.80
2019-04-14T20:19:10.220Z,11.23
2019-04-14T20:28:36.904Z,10.50
2019-04-14T20:31:43.241Z,10.17
2019-04-14T20:37:37.137Z,10.87
2019-04-14T20:40:26.647Z,10.23
2019-04-14T20:43:14.617Z,10.67
2019-04-14T20:46:02.557Z,11.00
2019-04-14T20:48:50.224Z,10.30
2019-04-14T20:51:37.727Z,11.30
2019-04-14T20:54:25.215Z,9.80
2019-04-14T20:57:12.708Z,9.83
2019-04-14T21:00:00.471Z,9.03
2019-04-14T21:03:06.837Z,8.90
2019-04-14T21:09:13.089Z,9.07
2019-04-14T21:12:19.450Z,8.80
2019-04-14T21:15:25.791Z,9.00
2019-04-14T21:21:29.910Z,9.30
2019-04-14T21:24:36.341Z,9.00
2019-04-14T21:27:42.711Z,8.40
2019-04-14T21:30:49.056Z,8.43
2019-04-14T21:33:55.488Z,8.37
2019-04-14T21:37:01.797Z,7.40
2019-04-14T21:42:47.566Z,7.90
2019-04-14T21:45:35.048Z,8.00
2019-04-14T21:48:25.622Z,8.37
2019-04-14T21:51:13.185Z,8.17
2019-04-14T21:53:54.374Z,8.20
2019-04-14T21:56:36.423Z,8.47
2019-04-14T22:02:53.954Z,8.80
2019-04-14T22:06:02.946Z,8.67
2019-04-14T22:14:54.037Z,8.80
2019-04-14T22:17:41.508Z,9.17
2019-04-14T22:20:29.020Z,10.83
2019-04-14T22:23:19.201Z,9.57
2019-04-14T22:26:06.698Z,9.57
2019-04-14T22:28:55.098Z,9.23
2019-04-14T22:31:42.629Z,10.00
2019-04-14T22:34:30.139Z,9.60
2019-04-14T22:37:17.649Z,8.70
2019-04-14T22:40:05.116Z,9.60
2019-04-14T22:43:11.572Z,9.10
2019-04-14T22:45:58.910Z,9.30
2019-04-14T22:48:46.386Z,8.47
2019-04-14T22:51:33.855Z,8.43
2019-04-14T22:54:21.396Z,8.57
2019-04-14T22:57:08.899Z,8.37
2019-04-14T22:59:56.402Z,8.50
2019-04-14T23:03:02.905Z,9.50
2019-04-14T23:06:09.279Z,9.13
2019-04-14T23:09:01.235Z,8.17
2019-04-14T23:12:07.592Z,9.20
2019-04-14T23:18:28.395Z,8.93
2019-04-14T23:21:37.288Z,8.47
2019-04-14T23:24:28.669Z,8.83
2019-04-14T23:27:16.235Z,8.70
2019-04-14T23:30:05.968Z,8.97
2019-04-14T23:32:53.470Z,9.57
2019-04-14T23:35:40.992Z,9.33
2019-04-14T23:38:28.633Z,9.70
2019-04-14T23:41:18.485Z,8.70
2019-04-14T23:44:05.966Z,9.33
2019-04-14T23:46:53.434Z,9.80
2019-04-14T23:49:40.947Z,9.77
2019-04-14T23:52:28.567Z,11.37
2019-04-14T23:55:16.369Z,10.77
2019-04-14T23:58:03.826Z,10.33
